createdAt,value
2018-09-28T00:00:02.115Z,11.90
2018-09-28T00:01:07.681Z,11.90
2018-09-28T00:02:13.137Z,12.00
2018-09-28T00:03:18.689Z,12.00
2018-09-28T00:04:24.320Z,12.10
2018-09-28T00:05:29.732Z,12.10
2018-09-28T00:06:35.161Z,12.10
2018-09-28T00:07:40.663Z,12.20
2018-09-28T00:08:46.101Z,12.20
2018-09-28T00:09:51.825Z,12.20
2018-09-28T00:10:57.232Z,12.20
2018-09-28T00:12:02.801Z,12.30
2018-09-28T00:13:08.543Z,12.30
2018-09-28T00:14:14.004Z,12.30
2018-09-28T00:15:19.497Z,12.40
2018-09-28T00:16:25.033Z,12.40
2018-09-28T00:17:30.526Z,12.40
2018-09-28T00:18:35.954Z,12.50
2018-09-28T00:19:41.429Z,12.50
2018-09-28T00:20:46.881Z,12.50
2018-09-28T00:21:52.865Z,12.50
2018-09-28T00:22:58.320Z,12.50
2018-09-28T00:24:03.761Z,12.50
2018-09-28T00:25:09.228Z,12.50
2018-09-28T00:26:14.687Z,12.50
2018-09-28T00:27:20.197Z,12.50
2018-09-28T00:28:25.697Z,12.50
2018-09-28T00:29:31.482Z,12.50
2018-09-28T00:30:36.892Z,12.50
2018-09-28T00:31:42.325Z,12.50
2018-09-28T00:32:47.745Z,12.50
2018-09-28T00:33:53.336Z,12.60
2018-09-28T00:34:58.833Z,12.60
2018-09-28T00:36:04.285Z,12.60
2018-09-28T00:37:09.764Z,12.60
2018-09-28T00:38:15.573Z,12.60
2018-09-28T00:39:21.117Z,12.60
2018-09-28T00:40:26.638Z,12.60
2018-09-28T00:41:32.056Z,12.60
2018-09-28T00:42:37.552Z,12.60
2018-09-28T00:43:43.132Z,12.60
2018-09-28T00:44:48.629Z,12.60
2018-09-28T00:45:54.053Z,12.70
2018-09-28T00:46:59.445Z,12.70
2018-09-28T00:48:04.960Z,12.70
2018-09-28T00:49:10.433Z,12.70
2018-09-28T00:50:15.921Z,12.70
2018-09-28T00:51:21.380Z,12.70
2018-09-28T00:52:26.996Z,12.80
2018-09-28T00:53:32.428Z,12.80
2018-09-28T00:54:37.949Z,12.80
2018-09-28T00:55:43.380Z,12.80
2018-09-28T00:56:48.929Z,12.80
2018-09-28T00:57:54.309Z,12.80
2018-09-28T00:58:59.806Z,12.90
2018-09-28T01:00:05.436Z,12.80
2018-09-28T01:01:10.884Z,12.90
2018-09-28T01:02:16.546Z,12.80
2018-09-28T01:03:21.980Z,12.90
2018-09-28T01:04:27.376Z,12.90
2018-09-28T01:05:32.828Z,12.90
2018-09-28T01:06:38.265Z,12.90
2018-09-28T01:07:43.725Z,12.90
2018-09-28T01:08:49.222Z,12.90
2018-09-28T01:09:54.706Z,12.90
2018-09-28T01:11:02.324Z,12.90
2018-09-28T01:12:07.781Z,12.90
2018-09-28T01:13:13.280Z,12.90
2018-09-28T01:14:19.062Z,12.90
2018-09-28T01:15:24.536Z,13.00
2018-09-28T01:16:29.982Z,13.00
2018-09-28T01:17:35.428Z,13.00
2018-09-28T01:18:40.956Z,13.00
2018-09-28T01:19:46.478Z,13.10
2018-09-28T01:20:52.048Z,13.10
2018-09-28T01:21:57.480Z,13.10
2018-09-28T01:23:02.958Z,13.10
2018-09-28T01:24:08.560Z,13.10
2018-09-28T01:25:14.014Z,13.10
2018-09-28T01:26:19.440Z,13.10
2018-09-28T01:27:24.873Z,13.10
2018-09-28T01:28:30.369Z,13.10
2018-09-28T01:29:35.818Z,13.10
2018-09-28T01:30:41.232Z,13.10
2018-09-28T01:31:46.782Z,13.10
2018-09-28T01:32:52.298Z,13.10
2018-09-28T01:33:58.076Z,13.10
2018-09-28T01:35:03.505Z,13.10
2018-09-28T01:36:09.038Z,13.10
2018-09-28T01:37:14.489Z,13.10
2018-09-28T01:38:19.962Z,13.10
2018-09-28T01:39:25.396Z,13.10
2018-09-28T01:40:30.837Z,13.10
2018-09-28T01:41:36.377Z,13.10
2018-09-28T01:42:41.944Z,13.10
2018-09-28T01:43:47.450Z,13.20
2018-09-28T01:44:52.948Z,13.20
2018-09-28T01:45:58.389Z,13.20
2018-09-28T01:47:03.935Z,13.20
2018-09-28T01:48:09.432Z,13.20
2018-09-28T01:49:14.913Z,13.20
2018-09-28T01:50:20.356Z,13.10
2018-09-28T01:51:25.763Z,13.20
2018-09-28T01:52:31.513Z,13.20
2018-09-28T01:53:36.909Z,13.20
2018-09-28T01:54:42.460Z,13.20
2018-09-28T01:55:47.913Z,13.20
2018-09-28T01:56:53.372Z,13.30
2018-09-28T01:57:58.772Z,13.30
2018-09-28T01:59:04.306Z,13.30
2018-09-28T02:00:09.989Z,13.30
2018-09-28T02:01:15.448Z,13.40
2018-09-28T02:02:20.930Z,13.40
2018-09-28T02:03:26.434Z,13.40
2018-09-28T02:04:31.858Z,13.40
2018-09-28T02:05:37.410Z,13.40
2018-09-28T02:06:42.824Z,13.40
2018-09-28T02:07:48.220Z,13.40
2018-09-28T02:08:53.681Z,13.50
2018-09-28T02:09:59.146Z,13.50
2018-09-28T02:11:04.597Z,13.50
2018-09-28T02:12:10.062Z,13.50
2018-09-28T02:13:15.526Z,13.50
2018-09-28T02:14:21.195Z,13.50
2018-09-28T02:15:26.602Z,13.50
2018-09-28T02:16:32.048Z,13.60
2018-09-28T02:17:37.549Z,13.50
2018-09-28T02:18:42.952Z,13.50
2018-09-28T02:19:48.534Z,13.60
2018-09-28T02:20:54.095Z,13.60
2018-09-28T02:21:59.523Z,13.60
2018-09-28T02:23:05.152Z,13.60
2018-09-28T02:24:10.569Z,13.60
2018-09-28T02:25:16.021Z,13.60
2018-09-28T02:26:21.445Z,13.60
2018-09-28T02:27:26.921Z,13.60
2018-09-28T02:28:32.670Z,13.60
2018-09-28T02:29:38.140Z,13.60
2018-09-28T02:30:43.597Z,13.60
2018-09-28T02:31:48.993Z,13.60
2018-09-28T02:32:54.461Z,13.60
2018-09-28T02:34:00.479Z,13.60
2018-09-28T02:35:06.468Z,13.50
2018-09-28T02:36:11.925Z,13.60
2018-09-28T02:37:17.317Z,13.50
2018-09-28T02:38:22.752Z,13.50
2018-09-28T02:39:28.257Z,13.50
2018-09-28T02:40:33.745Z,13.50
2018-09-28T02:41:39.233Z,13.60
2018-09-28T02:42:45.013Z,13.60
2018-09-28T02:43:50.480Z,13.60
2018-09-28T02:44:55.936Z,13.60
2018-09-28T02:46:01.385Z,13.60
2018-09-28T02:47:06.837Z,13.60
2018-09-28T02:48:12.317Z,13.50
2018-09-28T02:49:17.816Z,13.60
2018-09-28T02:50:23.298Z,13.60
2018-09-28T02:51:28.895Z,13.60
2018-09-28T02:52:34.362Z,13.60
2018-09-28T02:53:39.816Z,13.70
2018-09-28T02:54:45.206Z,13.70
2018-09-28T02:55:50.801Z,13.70
2018-09-28T02:56:56.358Z,13.70
2018-09-28T02:58:01.748Z,13.70
2018-09-28T02:59:07.636Z,13.70
2018-09-28T03:00:13.073Z,13.70
2018-09-28T03:01:18.691Z,13.70
2018-09-28T03:02:24.200Z,13.70
2018-09-28T03:03:29.801Z,13.70
2018-09-28T03:04:35.233Z,13.70
2018-09-28T03:05:40.945Z,13.70
2018-09-28T03:06:46.719Z,13.70
2018-09-28T03:07:52.337Z,13.80
2018-09-28T03:08:57.904Z,13.90
2018-09-28T03:10:03.384Z,13.90
2018-09-28T03:11:08.865Z,13.80
2018-09-28T03:12:14.562Z,13.80
2018-09-28T03:13:20.157Z,13.80
2018-09-28T03:14:25.701Z,13.80
2018-09-28T03:15:31.147Z,13.80
2018-09-28T03:16:36.635Z,13.70
2018-09-28T03:17:42.169Z,13.80
2018-09-28T03:18:47.582Z,13.80
2018-09-28T03:19:53.174Z,13.70
2018-09-28T03:20:58.712Z,13.70
2018-09-28T03:22:04.182Z,13.80
2018-09-28T03:23:09.599Z,13.70
2018-09-28T03:24:15.357Z,13.70
2018-09-28T03:25:21.098Z,13.80
2018-09-28T03:26:26.537Z,13.80
2018-09-28T03:27:32.134Z,13.80
2018-09-28T03:28:37.585Z,13.80
2018-09-28T03:29:43.077Z,13.80
2018-09-28T03:30:48.573Z,13.70
2018-09-28T03:31:54.099Z,13.80
2018-09-28T03:32:59.568Z,13.80
2018-09-28T03:34:05.117Z,13.80
2018-09-28T03:35:10.620Z,13.80
2018-09-28T03:36:16.169Z,13.80
2018-09-28T03:37:21.699Z,13.80
2018-09-28T03:38:27.152Z,13.80
2018-09-28T03:39:32.589Z,13.80
2018-09-28T03:40:38.547Z,13.80
2018-09-28T03:41:43.939Z,13.80
2018-09-28T03:42:49.494Z,13.80
2018-09-28T03:43:54.933Z,13.70
2018-09-28T03:45:00.449Z,13.80
2018-09-28T03:46:05.998Z,13.70
2018-09-28T03:47:11.513Z,13.70
2018-09-28T03:48:16.985Z,13.70
2018-09-28T03:49:22.454Z,13.70
2018-09-28T03:50:28.061Z,13.70
2018-09-28T03:51:33.802Z,13.80
2018-09-28T03:52:39.363Z,13.80
2018-09-28T03:53:44.798Z,13.80
2018-09-28T03:54:50.261Z,13.80
2018-09-28T03:55:56.022Z,13.70
2018-09-28T03:57:01.420Z,13.70
2018-09-28T03:58:06.918Z,13.70
2018-09-28T03:59:12.371Z,13.70
2018-09-28T04:00:17.876Z,13.70
2018-09-28T04:01:23.396Z,13.70
2018-09-28T04:02:29.167Z,13.60
2018-09-28T04:03:34.693Z,13.60
2018-09-28T04:04:40.259Z,13.60
2018-09-28T04:05:45.696Z,13.60
2018-09-28T04:06:51.364Z,13.60
2018-09-28T04:07:56.841Z,13.50
2018-09-28T04:09:02.288Z,13.60
2018-09-28T04:10:09.023Z,13.60
2018-09-28T04:11:14.441Z,13.60
2018-09-28T04:12:19.880Z,13.60
2018-09-28T04:13:25.363Z,13.60
2018-09-28T04:14:30.778Z,13.60
2018-09-28T04:15:36.210Z,13.60
2018-09-28T04:16:41.682Z,13.70
2018-09-28T04:17:47.156Z,13.60
2018-09-28T04:18:52.608Z,13.70
2018-09-28T04:19:58.045Z,13.70
2018-09-28T04:21:03.509Z,13.60
2018-09-28T04:22:09.342Z,13.60
2018-09-28T04:23:14.788Z,13.60
2018-09-28T04:24:20.566Z,13.70
2018-09-28T04:25:26.042Z,13.70
2018-09-28T04:26:31.468Z,13.70
2018-09-28T04:27:36.870Z,13.70
2018-09-28T04:28:42.374Z,13.70
2018-09-28T04:29:47.816Z,13.70
2018-09-28T04:30:53.262Z,13.70
2018-09-28T04:31:58.735Z,13.60
2018-09-28T04:33:04.165Z,13.70
2018-09-28T04:34:09.614Z,13.70
2018-09-28T04:35:15.020Z,13.70
2018-09-28T04:36:20.487Z,13.60
2018-09-28T04:37:25.953Z,13.60
2018-09-28T04:38:31.392Z,13.60
2018-09-28T04:39:36.993Z,13.60
2018-09-28T04:40:42.497Z,13.70
2018-09-28T04:41:48.247Z,13.60
2018-09-28T04:42:53.673Z,13.60
2018-09-28T04:43:59.128Z,13.50
2018-09-28T04:45:04.831Z,13.60
2018-09-28T04:46:10.313Z,13.60
2018-09-28T04:47:15.911Z,13.60
2018-09-28T04:48:21.341Z,13.60
2018-09-28T04:49:26.909Z,13.60
2018-09-28T04:50:32.363Z,13.60
2018-09-28T04:51:37.861Z,13.60
2018-09-28T04:52:43.313Z,13.70
2018-09-28T04:53:49.435Z,13.70
2018-09-28T04:54:54.990Z,13.70
2018-09-28T04:56:00.742Z,13.70
2018-09-28T04:57:06.221Z,13.70
2018-09-28T04:58:11.956Z,13.60
2018-09-28T04:59:17.365Z,13.70
2018-09-28T05:00:22.834Z,13.70
2018-09-28T05:01:28.372Z,13.70
2018-09-28T05:02:33.828Z,13.70
2018-09-28T05:03:39.373Z,13.70
2018-09-28T05:04:44.835Z,13.60
2018-09-28T05:05:50.306Z,13.60
2018-09-28T05:06:55.712Z,13.50
2018-09-28T05:08:01.172Z,13.50
2018-09-28T05:09:11.266Z,13.50
2018-09-28T05:10:16.737Z,13.60
2018-09-28T05:11:22.176Z,13.60
2018-09-28T05:12:27.673Z,13.60
2018-09-28T05:13:33.096Z,13.60
2018-09-28T05:14:38.573Z,13.60
2018-09-28T05:15:44.250Z,13.60
2018-09-28T05:16:50.008Z,13.60
2018-09-28T05:17:55.482Z,13.50
2018-09-28T05:19:00.928Z,13.50
2018-09-28T05:20:06.808Z,13.50
2018-09-28T05:21:12.319Z,13.50
2018-09-28T05:22:17.848Z,13.50
2018-09-28T05:23:23.281Z,13.50
2018-09-28T05:24:32.432Z,13.40
2018-09-28T05:25:37.847Z,13.40
2018-09-28T05:26:43.388Z,13.40
2018-09-28T05:27:48.984Z,13.40
2018-09-28T05:28:54.485Z,13.30
2018-09-28T05:29:59.968Z,13.30
2018-09-28T05:31:05.555Z,13.30
2018-09-28T05:32:11.089Z,13.30
2018-09-28T05:33:16.490Z,13.30
2018-09-28T05:34:22.172Z,13.30
2018-09-28T05:35:27.598Z,13.30
2018-09-28T05:36:33.037Z,13.30
2018-09-28T05:37:38.500Z,13.30
2018-09-28T05:38:43.996Z,13.30
2018-09-28T05:39:49.511Z,13.30
2018-09-28T05:40:54.952Z,13.40
2018-09-28T05:42:00.436Z,13.40
2018-09-28T05:43:05.834Z,13.40
2018-09-28T05:44:11.247Z,13.40
2018-09-28T05:45:16.936Z,13.40
2018-09-28T05:46:22.377Z,13.40
2018-09-28T05:47:27.801Z,13.40
2018-09-28T05:48:33.324Z,13.40
2018-09-28T05:49:38.816Z,13.50
2018-09-28T05:50:44.269Z,13.40
2018-09-28T05:51:49.741Z,13.50
2018-09-28T05:52:55.307Z,13.50
2018-09-28T05:54:00.729Z,13.60
2018-09-28T05:55:06.201Z,13.50
2018-09-28T05:56:11.974Z,13.50
2018-09-28T05:57:17.470Z,13.50
2018-09-28T05:58:28.159Z,13.40
2018-09-28T05:59:38.832Z,13.40
2018-09-28T06:00:49.442Z,13.50
2018-09-28T06:02:00.149Z,13.50
2018-09-28T06:03:12.737Z,13.50
2018-09-28T06:04:23.452Z,13.50
2018-09-28T06:05:33.524Z,13.50
2018-09-28T06:06:39.008Z,13.40
2018-09-28T06:07:44.412Z,13.40
2018-09-28T06:08:50.018Z,13.40
2018-09-28T06:09:55.613Z,13.40
2018-09-28T06:11:01.013Z,13.50
2018-09-28T06:12:06.522Z,13.50
2018-09-28T06:13:11.945Z,13.40
2018-09-28T06:14:17.532Z,13.50
2018-09-28T06:15:23.242Z,13.40
2018-09-28T06:16:28.733Z,13.40
2018-09-28T06:17:34.161Z,13.40
2018-09-28T06:18:39.700Z,13.40
2018-09-28T06:19:45.176Z,13.40
2018-09-28T06:20:50.816Z,13.40
2018-09-28T06:21:56.593Z,13.40
2018-09-28T06:23:02.127Z,13.30
2018-09-28T06:24:07.974Z,13.40
2018-09-28T06:25:13.379Z,13.40
2018-09-28T06:26:18.845Z,13.40
2018-09-28T06:27:24.344Z,13.30
2018-09-28T06:28:29.841Z,13.40
2018-09-28T06:29:35.417Z,13.40
2018-09-28T06:30:41.341Z,13.40
2018-09-28T06:31:46.784Z,13.40
2018-09-28T06:32:52.251Z,13.30
2018-09-28T06:33:57.757Z,13.30
2018-09-28T06:35:03.202Z,13.30
2018-09-28T06:36:08.717Z,13.30
2018-09-28T06:37:14.165Z,13.30
2018-09-28T06:38:19.593Z,13.30
2018-09-28T06:39:25.124Z,13.30
2018-09-28T06:40:30.588Z,13.30
2018-09-28T06:41:36.222Z,13.30
2018-09-28T06:42:41.670Z,13.30
2018-09-28T06:43:47.196Z,13.40
2018-09-28T06:44:52.705Z,13.30
2018-09-28T06:45:58.118Z,13.30
2018-09-28T06:47:03.572Z,13.30
2018-09-28T06:48:09.072Z,13.20
2018-09-28T06:49:14.478Z,13.20
2018-09-28T06:50:19.962Z,13.30
2018-09-28T06:51:25.530Z,13.30
2018-09-28T06:52:31.217Z,13.40
2018-09-28T06:53:36.632Z,13.40
2018-09-28T06:54:42.085Z,13.40
2018-09-28T06:55:47.531Z,13.40
2018-09-28T06:56:53.109Z,13.40
2018-09-28T06:57:59.032Z,13.40
2018-09-28T06:59:04.461Z,13.50
2018-09-28T07:00:10.295Z,13.50
2018-09-28T07:01:15.783Z,13.60
2018-09-28T07:02:21.416Z,13.60
2018-09-28T07:03:26.888Z,13.60
2018-09-28T07:04:33.550Z,13.70
2018-09-28T07:05:38.994Z,13.70
2018-09-28T07:06:44.408Z,13.70
2018-09-28T07:07:49.930Z,13.70
2018-09-28T07:08:55.406Z,13.80
2018-09-28T07:10:00.851Z,13.80
2018-09-28T07:11:06.576Z,13.80
2018-09-28T07:12:12.057Z,13.90
2018-09-28T07:13:17.430Z,13.90
2018-09-28T07:14:22.865Z,14.00
2018-09-28T07:15:28.484Z,13.90
2018-09-28T07:16:33.899Z,14.00
2018-09-28T07:17:39.387Z,14.00
2018-09-28T07:18:44.810Z,14.00
2018-09-28T07:19:50.342Z,14.00
2018-09-28T07:20:55.742Z,14.00
2018-09-28T07:22:01.185Z,14.00
2018-09-28T07:23:06.649Z,14.00
2018-09-28T07:24:12.168Z,14.00
2018-09-28T07:25:17.576Z,14.00
2018-09-28T07:26:23.028Z,14.00
2018-09-28T07:27:28.477Z,14.00
2018-09-28T07:28:33.960Z,14.00
2018-09-28T07:29:39.406Z,14.10
2018-09-28T07:30:44.804Z,14.20
2018-09-28T07:31:50.636Z,14.20
2018-09-28T07:32:56.328Z,14.30
2018-09-28T07:34:01.796Z,14.30
2018-09-28T07:35:07.716Z,14.30
2018-09-28T07:36:13.238Z,14.30
2018-09-28T07:37:18.621Z,14.30
2018-09-28T07:38:24.300Z,14.40
2018-09-28T07:39:30.005Z,14.40
2018-09-28T07:40:35.433Z,14.30
2018-09-28T07:41:41.047Z,14.30
2018-09-28T07:42:46.701Z,14.30
2018-09-28T07:43:52.217Z,14.30
2018-09-28T07:44:57.684Z,14.20
2018-09-28T07:46:03.089Z,14.20
2018-09-28T07:47:08.629Z,14.10
2018-09-28T07:48:14.078Z,14.10
2018-09-28T07:49:19.685Z,14.10
2018-09-28T07:50:25.065Z,14.00
2018-09-28T07:51:30.570Z,14.10
2018-09-28T07:52:36.329Z,14.00
2018-09-28T07:53:41.893Z,14.00
2018-09-28T07:54:47.445Z,14.10
2018-09-28T07:55:52.949Z,14.20
2018-09-28T07:56:58.340Z,14.10
2018-09-28T07:58:03.837Z,14.20
2018-09-28T07:59:09.381Z,14.30
2018-09-28T08:00:14.893Z,14.20
2018-09-28T08:01:20.454Z,14.30
2018-09-28T08:02:25.877Z,14.30
2018-09-28T08:03:31.289Z,14.40
2018-09-28T08:04:36.688Z,14.40
2018-09-28T08:05:42.225Z,14.30
2018-09-28T08:06:47.673Z,14.30
2018-09-28T08:07:53.241Z,14.30
2018-09-28T08:08:59.037Z,14.30
2018-09-28T08:10:05.060Z,14.30
2018-09-28T08:11:10.592Z,14.30
2018-09-28T08:12:15.997Z,14.20
2018-09-28T08:13:21.867Z,14.20
2018-09-28T08:14:27.432Z,14.20
2018-09-28T08:15:32.972Z,14.20
2018-09-28T08:16:39.359Z,14.10
2018-09-28T08:17:44.788Z,14.20
2018-09-28T08:18:50.341Z,14.30
2018-09-28T08:19:55.936Z,14.40
2018-09-28T08:21:01.380Z,14.50
2018-09-28T08:22:06.937Z,14.60
2018-09-28T08:23:12.385Z,14.70
2018-09-28T08:24:17.829Z,14.80
2018-09-28T08:25:23.325Z,14.90
2018-09-28T08:26:28.811Z,15.00
2018-09-28T08:27:34.352Z,15.10
2018-09-28T08:28:39.765Z,15.20
2018-09-28T08:29:45.229Z,15.20
2018-09-28T08:30:50.868Z,15.20
2018-09-28T08:31:56.398Z,15.40
2018-09-28T08:33:02.004Z,15.60
2018-09-28T08:34:07.555Z,15.70
2018-09-28T08:35:13.041Z,15.80
2018-09-28T08:36:18.488Z,16.00
2018-09-28T08:37:23.936Z,15.90
2018-09-28T08:38:29.427Z,15.90
2018-09-28T08:39:35.053Z,15.90
2018-09-28T08:40:40.808Z,15.90
2018-09-28T08:41:46.438Z,15.90
2018-09-28T08:42:52.006Z,15.90
2018-09-28T08:43:57.506Z,15.80
2018-09-28T08:45:03.089Z,15.90
2018-09-28T08:46:08.873Z,15.80
2018-09-28T08:47:14.272Z,15.80
2018-09-28T08:48:19.706Z,15.70
2018-09-28T08:49:25.173Z,15.70
2018-09-28T08:50:30.579Z,15.70
2018-09-28T08:51:36.161Z,15.60
2018-09-28T08:52:41.581Z,15.60
2018-09-28T08:53:47.178Z,15.70
2018-09-28T08:54:52.576Z,15.80
2018-09-28T08:55:58.060Z,15.80
2018-09-28T08:57:03.529Z,15.80
2018-09-28T08:58:08.974Z,15.80
2018-09-28T08:59:14.405Z,15.80
2018-09-28T09:00:19.956Z,15.70
2018-09-28T09:01:25.488Z,15.60
2018-09-28T09:02:31.099Z,15.50
2018-09-28T09:03:36.569Z,15.50
2018-09-28T09:04:42.032Z,15.40
2018-09-28T09:05:47.503Z,15.40
2018-09-28T09:06:52.921Z,15.30
2018-09-28T09:07:58.481Z,15.20
2018-09-28T09:09:04.494Z,15.10
2018-09-28T09:10:10.172Z,15.10
2018-09-28T09:11:15.618Z,15.00
2018-09-28T09:12:21.073Z,15.00
2018-09-28T09:13:26.496Z,14.90
2018-09-28T09:14:31.913Z,14.90
2018-09-28T09:15:37.437Z,14.90
2018-09-28T09:16:42.930Z,14.80
2018-09-28T09:17:48.418Z,14.80
2018-09-28T09:18:53.915Z,14.80
2018-09-28T09:19:59.367Z,14.70
2018-09-28T09:21:04.978Z,14.70
2018-09-28T09:22:10.405Z,14.70
2018-09-28T09:23:15.890Z,14.80
2018-09-28T09:24:21.475Z,14.80
2018-09-28T09:25:26.989Z,14.80
2018-09-28T09:26:32.365Z,14.90
2018-09-28T09:27:37.825Z,15.00
2018-09-28T09:28:43.316Z,15.10
2018-09-28T09:29:48.862Z,15.10
2018-09-28T09:30:54.425Z,15.20
2018-09-28T09:31:59.846Z,15.30
2018-09-28T09:33:05.276Z,15.40
2018-09-28T09:34:10.653Z,15.60
2018-09-28T09:35:16.065Z,15.70
2018-09-28T09:36:21.878Z,15.90
2018-09-28T09:37:27.437Z,15.90
2018-09-28T09:38:32.873Z,16.00
2018-09-28T09:39:38.322Z,16.00
2018-09-28T09:40:43.986Z,16.00
2018-09-28T09:41:49.598Z,16.00
2018-09-28T09:42:55.065Z,16.00
2018-09-28T09:44:00.544Z,16.10
2018-09-28T09:45:06.131Z,16.20
2018-09-28T09:46:11.697Z,16.20
2018-09-28T09:47:17.105Z,16.20
2018-09-28T09:48:22.551Z,16.00
2018-09-28T09:49:27.956Z,16.00
2018-09-28T09:50:33.425Z,16.00
2018-09-28T09:51:38.880Z,16.10
2018-09-28T09:52:44.313Z,16.10
2018-09-28T09:53:50.166Z,16.20
2018-09-28T09:54:55.720Z,16.00
2018-09-28T09:56:01.455Z,16.00
2018-09-28T09:57:07.166Z,16.00
2018-09-28T09:58:12.750Z,15.90
2018-09-28T09:59:18.523Z,15.70
2018-09-28T10:00:29.275Z,15.60
2018-09-28T10:01:39.850Z,15.60
2018-09-28T10:02:50.444Z,15.50
2018-09-28T10:03:56.050Z,15.50
2018-09-28T10:05:01.518Z,15.50
2018-09-28T10:06:07.560Z,15.50
2018-09-28T10:07:13.064Z,15.60
2018-09-28T10:08:18.548Z,15.60
2018-09-28T10:09:24.381Z,15.60
2018-09-28T10:10:29.885Z,15.60
2018-09-28T10:11:35.297Z,15.50
2018-09-28T10:12:40.722Z,15.60
2018-09-28T10:13:46.213Z,15.60
2018-09-28T10:14:51.945Z,15.60
2018-09-28T10:15:57.529Z,15.70
2018-09-28T10:17:03.150Z,15.70
2018-09-28T10:18:08.620Z,15.80
2018-09-28T10:19:14.154Z,15.90
2018-09-28T10:20:19.777Z,15.90
2018-09-28T10:21:25.227Z,16.00
2018-09-28T10:22:30.814Z,16.00
2018-09-28T10:23:36.236Z,16.10
2018-09-28T10:24:41.649Z,16.10
2018-09-28T10:25:47.077Z,16.10
2018-09-28T10:26:52.791Z,16.10
2018-09-28T10:27:58.374Z,16.10
2018-09-28T10:29:03.824Z,16.00
2018-09-28T10:30:09.326Z,16.00
2018-09-28T10:31:14.712Z,16.00
2018-09-28T10:32:20.174Z,16.10
2018-09-28T10:33:25.659Z,16.20
2018-09-28T10:34:31.148Z,16.10
2018-09-28T10:35:36.612Z,16.10
2018-09-28T10:36:42.174Z,16.00
2018-09-28T10:37:47.926Z,16.00
2018-09-28T10:38:53.357Z,16.00
2018-09-28T10:39:58.848Z,16.10
2018-09-28T10:41:04.319Z,16.10
2018-09-28T10:42:09.758Z,16.00
2018-09-28T10:43:15.205Z,16.00
2018-09-28T10:44:20.765Z,16.00
2018-09-28T10:45:26.326Z,16.20
2018-09-28T10:46:31.690Z,16.30
2018-09-28T10:47:37.093Z,16.40
2018-09-28T10:48:42.578Z,16.40
2018-09-28T10:49:48.204Z,16.30
2018-09-28T10:50:53.970Z,16.30
2018-09-28T10:51:59.579Z,16.20
2018-09-28T10:53:04.987Z,16.10
2018-09-28T10:54:10.372Z,16.00
2018-09-28T10:55:15.830Z,16.00
2018-09-28T10:56:21.362Z,16.00
2018-09-28T10:57:26.828Z,16.20
2018-09-28T10:58:32.242Z,16.20
2018-09-28T10:59:37.692Z,16.30
2018-09-28T11:00:43.152Z,16.30
2018-09-28T11:01:48.862Z,16.60
2018-09-28T11:02:54.368Z,16.70
2018-09-28T11:03:59.773Z,16.80
2018-09-28T11:05:05.309Z,16.80
2018-09-28T11:06:11.152Z,16.80
2018-09-28T11:07:17.225Z,16.80
2018-09-28T11:08:22.724Z,16.70
2018-09-28T11:09:28.121Z,16.80
2018-09-28T11:10:33.543Z,16.80
2018-09-28T11:11:38.984Z,16.80
2018-09-28T11:12:44.461Z,16.80
2018-09-28T11:13:49.977Z,16.90
2018-09-28T11:14:55.573Z,17.00
2018-09-28T11:16:01.044Z,17.10
2018-09-28T11:17:06.554Z,17.30
2018-09-28T11:18:12.312Z,17.30
2018-09-28T11:19:17.745Z,17.40
2018-09-28T11:20:23.520Z,17.30
2018-09-28T11:21:28.991Z,17.20
2018-09-28T11:22:34.481Z,17.00
2018-09-28T11:23:39.960Z,16.90
2018-09-28T11:24:45.381Z,16.80
2018-09-28T11:25:50.854Z,16.70
2018-09-28T11:26:56.348Z,16.60
2018-09-28T11:28:01.809Z,16.50
2018-09-28T11:29:07.377Z,16.50
2018-09-28T11:30:12.862Z,16.40
2018-09-28T11:31:18.402Z,16.30
2018-09-28T11:32:23.868Z,16.30
2018-09-28T11:33:29.385Z,16.30
2018-09-28T11:34:34.786Z,16.40
2018-09-28T11:35:40.193Z,16.30
2018-09-28T11:36:45.777Z,16.30
2018-09-28T11:37:51.640Z,16.10
2018-09-28T11:38:57.380Z,15.90
2018-09-28T11:40:02.841Z,15.80
2018-09-28T11:41:08.348Z,15.80
2018-09-28T11:42:13.813Z,15.80
2018-09-28T11:43:19.245Z,15.80
2018-09-28T11:44:24.814Z,15.70
2018-09-28T11:45:30.295Z,15.90
2018-09-28T11:46:35.648Z,16.00
2018-09-28T11:47:41.077Z,16.30
2018-09-28T11:48:46.497Z,16.40
2018-09-28T11:49:52.632Z,16.50
2018-09-28T11:50:58.108Z,16.70
2018-09-28T11:52:03.531Z,16.80
2018-09-28T11:53:09.091Z,16.80
2018-09-28T11:54:14.604Z,16.90
2018-09-28T11:55:20.173Z,16.80
2018-09-28T11:56:25.814Z,16.50
2018-09-28T11:57:31.304Z,16.50
2018-09-28T11:58:36.678Z,16.50
2018-09-28T11:59:42.485Z,16.40
2018-09-28T12:00:47.896Z,16.30
2018-09-28T12:01:53.564Z,16.30
2018-09-28T12:02:58.984Z,16.20
2018-09-28T12:04:04.397Z,16.40
2018-09-28T12:05:09.998Z,16.50
2018-09-28T12:06:15.440Z,16.50
2018-09-28T12:07:20.902Z,16.50
2018-09-28T12:08:26.397Z,16.30
2018-09-28T12:09:31.847Z,16.20
2018-09-28T12:10:37.336Z,16.20
2018-09-28T12:11:43.508Z,16.20
2018-09-28T12:12:48.953Z,16.10
2018-09-28T12:13:54.441Z,16.20
2018-09-28T12:14:59.867Z,16.10
2018-09-28T12:16:05.332Z,16.20
2018-09-28T12:17:10.848Z,16.20
2018-09-28T12:18:16.392Z,16.40
2018-09-28T12:19:21.810Z,16.50
2018-09-28T12:20:28.813Z,16.60
2018-09-28T12:21:34.480Z,16.70
2018-09-28T12:22:40.537Z,16.80
2018-09-28T12:23:46.033Z,16.80
2018-09-28T12:24:51.552Z,16.80
2018-09-28T12:25:57.033Z,16.70
2018-09-28T12:27:02.477Z,16.60
2018-09-28T12:28:07.907Z,16.50
2018-09-28T12:29:13.413Z,16.30
2018-09-28T12:30:18.884Z,16.10
2018-09-28T12:31:24.393Z,15.90
2018-09-28T12:32:29.976Z,15.90
2018-09-28T12:33:35.415Z,15.90
2018-09-28T12:34:40.831Z,15.80
2018-09-28T12:35:46.250Z,15.80
2018-09-28T12:36:51.812Z,15.70
2018-09-28T12:37:57.364Z,15.80
2018-09-28T12:39:03.052Z,15.80
2018-09-28T12:40:08.821Z,15.90
2018-09-28T12:41:14.224Z,16.00
2018-09-28T12:42:19.725Z,16.10
2018-09-28T12:43:25.148Z,16.20
2018-09-28T12:44:30.591Z,16.10
2018-09-28T12:45:36.059Z,16.20
2018-09-28T12:46:41.469Z,16.20
2018-09-28T12:47:46.853Z,16.30
2018-09-28T12:48:52.399Z,16.30
2018-09-28T12:49:57.772Z,16.40
2018-09-28T12:51:03.229Z,16.60
2018-09-28T12:52:08.741Z,16.70
2018-09-28T12:53:14.208Z,16.90
2018-09-28T12:54:19.936Z,17.00
2018-09-28T12:55:25.392Z,17.10
2018-09-28T12:56:31.017Z,17.20
2018-09-28T12:57:36.640Z,17.30
2018-09-28T12:58:42.145Z,17.40
2018-09-28T12:59:47.592Z,17.20
2018-09-28T13:00:53.423Z,17.20
2018-09-28T13:01:59.194Z,17.10
2018-09-28T13:03:04.926Z,16.70
2018-09-28T13:04:15.521Z,16.60
2018-09-28T13:05:21.529Z,16.50
2018-09-28T13:06:27.428Z,16.30
2018-09-28T13:07:33.033Z,16.20
2018-09-28T13:08:38.704Z,16.10
2018-09-28T13:09:44.215Z,16.00
2018-09-28T13:10:50.171Z,16.00
2018-09-28T13:11:55.821Z,15.90
2018-09-28T13:13:01.599Z,15.80
2018-09-28T13:14:07.413Z,15.70
2018-09-28T13:15:12.957Z,15.70
2018-09-28T13:16:18.769Z,15.50
2018-09-28T13:17:24.465Z,15.50
2018-09-28T13:18:30.096Z,15.50
2018-09-28T13:19:35.868Z,15.40
2018-09-28T13:20:41.672Z,15.40
2018-09-28T13:21:47.172Z,15.40
2018-09-28T13:22:52.913Z,15.50
2018-09-28T13:23:58.527Z,15.50
2018-09-28T13:25:04.082Z,15.70
2018-09-28T13:26:09.582Z,15.90
2018-09-28T13:27:15.016Z,16.10
2018-09-28T13:28:20.463Z,16.20
2018-09-28T13:29:26.089Z,16.30
2018-09-28T13:30:31.522Z,16.40
2018-09-28T13:31:37.372Z,16.60
2018-09-28T13:32:43.057Z,16.70
2018-09-28T13:33:49.028Z,17.00
2018-09-28T13:34:54.988Z,17.10
2018-09-28T13:36:00.454Z,17.00
2018-09-28T13:37:06.677Z,17.00
2018-09-28T13:38:12.292Z,16.80
2018-09-28T13:39:18.138Z,16.70
2018-09-28T13:40:23.778Z,16.60
2018-09-28T13:41:29.201Z,16.50
2018-09-28T13:42:34.701Z,16.40
2018-09-28T13:43:40.135Z,16.30
2018-09-28T13:44:46.078Z,16.20
2018-09-28T13:45:51.649Z,16.30
2018-09-28T13:46:57.317Z,16.30
2018-09-28T13:48:02.880Z,16.30
2018-09-28T13:49:08.417Z,16.30
2018-09-28T13:50:14.216Z,16.40
2018-09-28T13:51:19.825Z,16.30
2018-09-28T13:52:26.050Z,16.20
2018-09-28T13:53:31.582Z,16.00
2018-09-28T13:54:37.226Z,15.90
2018-09-28T13:55:42.832Z,15.80
2018-09-28T13:56:48.327Z,15.70
2018-09-28T13:57:53.802Z,15.70
2018-09-28T13:58:59.326Z,15.70
2018-09-28T14:00:05.524Z,15.60
2018-09-28T14:01:11.122Z,15.50
2018-09-28T14:02:17.103Z,15.40
2018-09-28T14:03:22.824Z,15.50
2018-09-28T14:04:28.501Z,15.50